createdAt,value
2023-04-23T00:00:15.088Z,9.40
2023-04-23T00:03:13.201Z,12.10
2023-04-23T00:05:43.514Z,10.20
2023-04-23T00:08:12.445Z,8.60
2023-04-23T00:10:41.317Z,10.40
2023-04-23T00:13:10.305Z,9.40
2023-04-23T00:15:38.698Z,9.50
2023-04-23T00:18:07.176Z,10.70
2023-04-23T00:20:36.071Z,8.30
2023-04-23T00:23:04.261Z,12.00
2023-04-23T00:25:32.631Z,10.00
2023-04-23T00:28:01.058Z,12.00
2023-04-23T00:30:29.592Z,10.30
2023-04-23T00:32:58.127Z,10.10
2023-04-23T00:35:26.783Z,10.90
2023-04-23T00:37:54.938Z,9.40
2023-04-23T00:40:23.977Z,9.50
2023-04-23T00:42:53.957Z,9.10
2023-04-23T00:45:22.440Z,9.10
2023-04-23T00:47:51.317Z,11.40
2023-04-23T00:50:21.163Z,8.40
2023-04-23T00:52:49.539Z,8.50
2023-04-23T00:55:21.161Z,9.50
2023-04-23T00:57:50.075Z,9.40
2023-04-23T01:00:20.508Z,10.10
2023-04-23T01:02:50.975Z,9.30
2023-04-23T01:05:20.339Z,9.40
2023-04-23T01:07:49.341Z,9.80
2023-04-23T01:10:18.023Z,9.20
2023-04-23T01:12:47.319Z,9.00
2023-04-23T01:15:15.822Z,12.10
2023-04-23T01:17:45.200Z,8.40
2023-04-23T01:20:13.636Z,8.40
2023-04-23T01:22:41.882Z,9.50
2023-04-23T01:25:10.762Z,10.00
2023-04-23T01:27:39.310Z,9.10
2023-04-23T01:30:09.066Z,10.40
2023-04-23T01:32:37.824Z,9.90
2023-04-23T01:35:08.062Z,9.90
2023-04-23T01:37:38.597Z,12.60
2023-04-23T01:40:08.670Z,10.10
2023-04-23T01:42:36.746Z,9.40
2023-04-23T01:45:08.134Z,9.80
2023-04-23T01:47:36.887Z,8.90
2023-04-23T01:50:05.936Z,9.80
2023-04-23T01:52:34.416Z,10.60
2023-04-23T01:55:02.706Z,11.20
2023-04-23T01:57:31.105Z,9.00
2023-04-23T02:00:11.438Z,10.00
2023-04-23T02:02:44.384Z,10.50
2023-04-23T02:05:18.959Z,8.30
2023-04-23T02:07:49.376Z,10.20
2023-04-23T02:10:18.993Z,11.00
2023-04-23T02:12:48.600Z,11.10
2023-04-23T02:15:17.292Z,9.20
2023-04-23T02:17:46.323Z,10.40
2023-04-23T02:20:14.867Z,10.00
2023-04-23T02:22:43.144Z,8.50
2023-04-23T02:25:12.157Z,8.90
2023-04-23T02:27:40.417Z,9.40
2023-04-23T02:30:11.525Z,11.70
2023-04-23T02:32:40.461Z,10.00
2023-04-23T02:35:10.638Z,11.90
2023-04-23T02:37:39.907Z,11.80
2023-04-23T02:40:09.399Z,10.30
2023-04-23T02:42:38.188Z,10.50
2023-04-23T02:45:07.282Z,10.60
2023-04-23T02:47:35.660Z,10.80
2023-04-23T02:50:06.574Z,12.20
2023-04-23T02:52:34.876Z,10.20
2023-04-23T02:55:04.071Z,8.90
2023-04-23T02:57:32.917Z,9.80
2023-04-23T03:00:01.200Z,10.80
2023-04-23T03:02:35.826Z,10.90
2023-04-23T03:05:06.239Z,11.50
2023-04-23T03:07:34.583Z,15.30
2023-04-23T03:10:02.797Z,9.40
2023-04-23T03:12:31.442Z,10.20
2023-04-23T03:14:59.715Z,8.50
2023-04-23T03:17:28.885Z,9.80
2023-04-23T03:19:57.201Z,11.10
2023-04-23T03:22:25.927Z,12.00
2023-04-23T03:24:54.168Z,10.40
2023-04-23T03:27:22.857Z,9.10
2023-04-23T03:29:51.149Z,11.40
2023-04-23T03:32:19.278Z,12.00
2023-04-23T03:34:47.441Z,9.20
2023-04-23T03:37:17.192Z,9.90
2023-04-23T03:39:45.464Z,10.10
2023-04-23T03:42:14.328Z,11.10
2023-04-23T03:44:43.200Z,8.90
2023-04-23T03:47:11.749Z,8.50
2023-04-23T03:49:40.631Z,11.20
2023-04-23T03:52:09.016Z,10.70
2023-04-23T03:54:39.247Z,12.90
2023-04-23T03:57:17.785Z,13.40
2023-04-23T04:00:15.528Z,12.10
2023-04-23T04:02:44.101Z,11.00
2023-04-23T04:05:12.960Z,12.80
2023-04-23T04:07:41.599Z,12.20
2023-04-23T04:10:10.201Z,11.40
2023-04-23T04:12:40.010Z,12.00
2023-04-23T04:15:11.523Z,12.10
2023-04-23T04:17:40.014Z,11.90
2023-04-23T04:20:09.455Z,9.90
2023-04-23T04:22:37.842Z,8.60
2023-04-23T04:25:07.132Z,9.30
2023-04-23T04:27:36.045Z,11.50
2023-04-23T04:30:05.738Z,9.50
2023-04-23T04:32:34.572Z,11.80
2023-04-23T04:35:02.889Z,10.20
2023-04-23T04:37:32.406Z,10.00
2023-04-23T04:40:01.806Z,9.60
2023-04-23T04:42:30.206Z,10.90
2023-04-23T04:44:59.674Z,12.50
2023-04-23T04:47:28.178Z,19.90
2023-04-23T04:49:57.981Z,15.90
2023-04-23T04:52:26.365Z,13.90
2023-04-23T04:54:54.857Z,16.30
2023-04-23T04:57:23.337Z,20.30
2023-04-23T04:59:51.756Z,14.20
2023-04-23T05:02:22.191Z,13.20
2023-04-23T05:04:50.826Z,10.50
2023-04-23T05:07:18.973Z,16.80
2023-04-23T05:09:47.387Z,15.80
2023-04-23T05:12:15.870Z,15.10
2023-04-23T05:14:44.340Z,14.20
2023-04-23T05:17:13.347Z,12.40
2023-04-23T05:19:41.594Z,21.00
2023-04-23T05:22:09.805Z,17.10
2023-04-23T05:24:38.023Z,21.00
2023-04-23T05:27:06.476Z,15.90
2023-04-23T05:29:34.656Z,15.40
2023-04-23T05:32:03.074Z,20.40
2023-04-23T05:34:31.302Z,40.60
2023-04-23T05:36:59.717Z,28.10
2023-04-23T05:39:28.358Z,27.90
2023-04-23T05:41:56.741Z,27.50
2023-04-23T05:44:24.951Z,27.00
2023-04-23T05:46:53.296Z,16.90
2023-04-23T05:49:21.473Z,22.60
2023-04-23T05:51:51.735Z,21.40
2023-04-23T05:54:20.070Z,26.00
2023-04-23T05:56:48.553Z,35.10
2023-04-23T05:59:16.837Z,48.50
2023-04-23T06:01:45.150Z,76.90
2023-04-23T06:04:14.292Z,23.50
2023-04-23T06:06:45.972Z,22.00
2023-04-23T06:09:14.108Z,20.10
2023-04-23T06:11:42.343Z,26.90
2023-04-23T06:14:11.208Z,19.10
2023-04-23T06:16:39.311Z,15.50
2023-04-23T06:19:07.477Z,19.00
2023-04-23T06:21:35.680Z,15.60
2023-04-23T06:24:04.044Z,18.20
2023-04-23T06:26:33.244Z,15.20
2023-04-23T06:29:02.831Z,13.10
2023-04-23T06:31:35.016Z,12.40
2023-04-23T06:34:03.933Z,13.70
2023-04-23T06:36:32.580Z,12.40
2023-04-23T06:39:00.952Z,11.10
2023-04-23T06:41:29.436Z,10.40
2023-04-23T06:44:17.167Z,9.80
2023-04-23T06:46:54.516Z,8.20
2023-04-23T06:49:22.849Z,8.60
2023-04-23T06:51:51.504Z,9.40
2023-04-23T06:54:19.705Z,9.30
2023-04-23T06:56:47.967Z,8.20
2023-04-23T06:59:16.386Z,9.20
2023-04-23T07:01:47.329Z,8.40
2023-04-23T07:04:15.967Z,10.20
2023-04-23T07:06:44.382Z,7.60
2023-04-23T07:09:13.122Z,8.80
2023-04-23T07:11:41.930Z,9.60
2023-04-23T07:14:10.353Z,9.90
2023-04-23T07:16:38.758Z,9.50
2023-04-23T07:19:07.123Z,8.10
2023-04-23T07:21:36.114Z,10.10
2023-04-23T07:24:07.454Z,10.50
2023-04-23T07:26:37.205Z,13.70
2023-04-23T07:29:07.921Z,15.10
2023-04-23T07:31:37.706Z,10.40
2023-04-23T07:34:06.933Z,19.00
2023-04-23T07:36:35.718Z,13.60
2023-04-23T07:39:05.476Z,9.00
2023-04-23T07:41:33.917Z,8.20
2023-04-23T07:44:02.161Z,6.90
2023-04-23T07:46:30.521Z,11.20
2023-04-23T07:48:59.160Z,12.10
2023-04-23T07:51:27.873Z,11.90
2023-04-23T07:53:58.405Z,8.20
2023-04-23T07:56:28.298Z,7.90
2023-04-23T07:58:58.341Z,8.10
2023-04-23T08:01:27.324Z,7.80
2023-04-23T08:04:00.993Z,9.10
2023-04-23T08:06:35.375Z,8.40
2023-04-23T08:09:06.587Z,7.20
2023-04-23T08:11:35.775Z,7.70
2023-04-23T08:14:04.157Z,8.20
2023-04-23T08:16:33.024Z,8.50
2023-04-23T08:19:05.581Z,7.80
2023-04-23T08:21:35.323Z,9.70
2023-04-23T08:24:04.638Z,8.20
2023-04-23T08:26:32.915Z,7.90
2023-04-23T08:29:01.108Z,8.00
2023-04-23T08:31:29.648Z,8.20
2023-04-23T08:33:58.191Z,8.50
2023-04-23T08:36:27.805Z,8.10
2023-04-23T08:38:55.994Z,8.90
2023-04-23T08:41:31.111Z,9.10
2023-04-23T08:44:26.168Z,8.70
2023-04-23T08:46:56.068Z,9.30
2023-04-23T08:49:26.709Z,8.50
2023-04-23T08:52:00.727Z,7.20
2023-04-23T08:54:32.405Z,6.90
2023-04-23T08:57:02.066Z,6.60
2023-04-23T08:59:34.652Z,7.40
2023-04-23T09:02:10.912Z,7.10
2023-04-23T09:04:39.576Z,7.10
2023-04-23T09:07:14.084Z,7.70
2023-04-23T09:09:42.625Z,6.60
2023-04-23T09:12:11.392Z,7.50
2023-04-23T09:14:39.792Z,6.10
2023-04-23T09:17:08.222Z,7.10
2023-04-23T09:19:39.878Z,6.90
2023-04-23T09:22:09.387Z,6.80
2023-04-23T09:24:38.006Z,9.00
2023-04-23T09:27:06.347Z,10.30
2023-04-23T09:29:34.626Z,9.90
2023-04-23T09:32:08.226Z,11.70
2023-04-23T09:34:41.366Z,8.30
2023-04-23T09:37:11.342Z,7.10
2023-04-23T09:39:39.904Z,7.80
2023-04-23T09:42:11.378Z,7.10
2023-04-23T09:44:39.523Z,12.80
2023-04-23T09:47:15.035Z,11.00
2023-04-23T09:49:50.590Z,9.70
2023-04-23T09:52:19.446Z,6.60
2023-04-23T09:54:48.169Z,6.40
2023-04-23T09:57:16.919Z,7.50
2023-04-23T09:59:47.701Z,7.20
2023-04-23T10:02:19.275Z,9.90
2023-04-23T10:05:00.632Z,9.30
2023-04-23T10:07:35.459Z,9.80
2023-04-23T10:10:04.136Z,11.10
2023-04-23T10:12:52.140Z,10.30
2023-04-23T10:15:22.685Z,11.60
2023-04-23T10:17:52.064Z,20.50
2023-04-23T10:20:23.052Z,20.70
2023-04-23T10:22:54.872Z,11.10
2023-04-23T10:25:26.287Z,19.00
2023-04-23T10:27:56.578Z,6.30
2023-04-23T10:30:25.768Z,7.30
2023-04-23T10:32:55.058Z,9.00
2023-04-23T10:35:23.658Z,7.70
2023-04-23T10:37:52.617Z,6.90
2023-04-23T10:40:26.687Z,6.90
2023-04-23T10:42:55.914Z,8.40
2023-04-23T10:45:25.666Z,6.60
2023-04-23T10:47:57.607Z,6.50
2023-04-23T10:50:28.198Z,7.80
2023-04-23T10:52:58.094Z,7.70
2023-04-23T10:55:28.955Z,10.50
2023-04-23T10:58:05.321Z,7.70
2023-04-23T11:00:45.916Z,6.70
2023-04-23T11:03:30.685Z,7.20
2023-04-23T11:06:03.684Z,7.80
2023-04-23T11:08:32.779Z,7.20
2023-04-23T11:11:06.853Z,8.80
2023-04-23T11:13:35.321Z,8.20
2023-04-23T11:16:21.839Z,8.80
2023-04-23T11:19:05.366Z,7.50
2023-04-23T11:22:12.960Z,9.90
2023-04-23T11:24:43.439Z,9.40
2023-04-23T11:27:14.440Z,6.90
2023-04-23T11:29:45.503Z,8.20
2023-04-23T11:32:17.945Z,8.00
2023-04-23T11:34:48.019Z,8.90
2023-04-23T11:37:18.228Z,7.90
2023-04-23T11:39:51.809Z,6.90
2023-04-23T11:42:23.412Z,7.60
2023-04-23T11:44:53.272Z,6.10
2023-04-23T11:47:21.648Z,9.20
2023-04-23T11:49:49.928Z,9.90
2023-04-23T11:52:18.016Z,8.30
2023-04-23T11:54:46.299Z,6.50
2023-04-23T11:57:14.769Z,6.40
2023-04-23T11:59:43.602Z,8.20
2023-04-23T12:02:12.680Z,9.70
2023-04-23T12:04:41.594Z,14.70
2023-04-23T12:07:23.086Z,11.00
2023-04-23T12:10:00.586Z,8.70
2023-04-23T12:12:35.772Z,8.40
2023-04-23T12:15:06.717Z,9.10
2023-04-23T12:17:36.317Z,8.90
2023-04-23T12:20:07.281Z,8.10
2023-04-23T12:22:35.835Z,8.30
2023-04-23T12:25:09.876Z,6.80
2023-04-23T12:27:42.772Z,9.30
2023-04-23T12:30:12.222Z,10.00
2023-04-23T12:32:41.471Z,8.20
2023-04-23T12:35:11.427Z,7.00
2023-04-23T12:37:39.844Z,10.70
2023-04-23T12:40:08.918Z,10.40
2023-04-23T12:42:37.227Z,8.10
2023-04-23T12:45:07.661Z,8.20
2023-04-23T12:47:35.879Z,7.20
2023-04-23T12:50:05.842Z,8.00
2023-04-23T12:52:34.238Z,7.70
2023-04-23T12:55:05.186Z,10.80
2023-04-23T12:57:33.650Z,7.50
2023-04-23T13:00:02.540Z,7.40
2023-04-23T13:02:31.473Z,7.60
2023-04-23T13:05:01.413Z,9.50
2023-04-23T13:07:29.983Z,6.70
2023-04-23T13:09:59.774Z,8.30
2023-04-23T13:12:28.266Z,8.30
2023-04-23T13:14:57.022Z,7.30
2023-04-23T13:17:26.609Z,7.10
2023-04-23T13:19:56.243Z,7.50
2023-04-23T13:22:28.722Z,10.60
2023-04-23T13:24:57.935Z,12.30
2023-04-23T13:27:28.663Z,7.90
2023-04-23T13:29:57.171Z,15.00
2023-04-23T13:32:27.601Z,9.40
2023-04-23T13:34:56.700Z,13.60
2023-04-23T13:37:26.682Z,10.10
2023-04-23T13:39:55.064Z,10.40
2023-04-23T13:42:23.362Z,12.40
2023-04-23T13:44:51.522Z,19.70
2023-04-23T13:47:20.005Z,15.80
2023-04-23T13:49:48.493Z,19.70
2023-04-23T13:52:16.552Z,30.90
2023-04-23T13:54:47.934Z,30.30
2023-04-23T13:57:16.290Z,53.00
2023-04-23T13:59:44.678Z,24.60
2023-04-23T14:02:13.102Z,15.90
2023-04-23T14:04:41.770Z,13.70
2023-04-23T14:07:10.570Z,12.20
2023-04-23T14:09:38.864Z,10.10
2023-04-23T14:12:07.299Z,7.80
2023-04-23T14:14:35.795Z,10.30
2023-04-23T14:17:04.343Z,9.40
2023-04-23T14:19:34.810Z,9.40
2023-04-23T14:22:03.991Z,9.30
2023-04-23T14:24:39.931Z,14.00
2023-04-23T14:27:09.076Z,10.40
2023-04-23T14:29:50.764Z,9.30
2023-04-23T14:32:18.957Z,7.80
2023-04-23T14:34:47.910Z,7.60
2023-04-23T14:37:17.756Z,11.20
2023-04-23T14:39:46.947Z,9.20
2023-04-23T14:42:15.236Z,8.90
2023-04-23T14:44:43.473Z,10.10
2023-04-23T14:47:12.161Z,12.00
2023-04-23T14:49:42.050Z,10.10
2023-04-23T14:52:10.883Z,7.80
2023-04-23T14:54:39.459Z,7.50
2023-04-23T14:57:07.837Z,7.60
2023-04-23T14:59:36.128Z,8.80
2023-04-23T15:02:04.889Z,10.00
2023-04-23T15:04:35.375Z,7.40
2023-04-23T15:07:03.823Z,7.50
2023-04-23T15:09:32.202Z,8.40
2023-04-23T15:12:01.115Z,8.40
2023-04-23T15:14:36.911Z,9.40
2023-04-23T15:17:05.178Z,9.50
2023-04-23T15:19:33.500Z,10.00
2023-04-23T15:22:01.517Z,7.60
2023-04-23T15:24:29.757Z,9.40
2023-04-23T15:26:59.581Z,12.60
2023-04-23T15:29:28.465Z,7.60
2023-04-23T15:31:58.589Z,7.80
2023-04-23T15:34:27.201Z,7.20
2023-04-23T15:36:55.670Z,7.40
2023-04-23T15:39:24.544Z,8.60
2023-04-23T15:41:53.983Z,8.90
2023-04-23T15:44:22.444Z,8.30
2023-04-23T15:46:50.952Z,11.20
2023-04-23T15:49:19.206Z,8.70
2023-04-23T15:51:47.627Z,11.30
2023-04-23T15:54:15.686Z,9.10
2023-04-23T15:56:43.837Z,8.90
2023-04-23T15:59:12.364Z,9.70
2023-04-23T16:01:40.787Z,9.00
2023-04-23T16:04:11.518Z,11.50
2023-04-23T16:06:40.164Z,9.60
2023-04-23T16:09:08.970Z,9.80
2023-04-23T16:11:38.446Z,10.00
2023-04-23T16:14:07.196Z,10.20
2023-04-23T16:16:35.506Z,11.50
2023-04-23T16:19:04.197Z,10.40
2023-04-23T16:21:32.964Z,40.50
2023-04-23T16:24:01.480Z,53.90
2023-04-23T16:26:30.345Z,40.60
2023-04-23T16:29:11.128Z,23.50
2023-04-23T16:31:45.853Z,15.00
2023-04-23T16:34:14.121Z,12.30
2023-04-23T16:36:42.611Z,11.50
2023-04-23T16:39:11.662Z,10.80
2023-04-23T16:41:40.080Z,11.30
2023-04-23T16:44:08.451Z,11.50
2023-04-23T16:46:37.542Z,12.20
2023-04-23T16:49:05.958Z,12.00
2023-04-23T16:51:34.530Z,18.10
2023-04-23T16:54:02.725Z,14.50
2023-04-23T16:56:31.375Z,23.70
2023-04-23T16:59:00.270Z,16.80
2023-04-23T17:01:28.578Z,19.20
2023-04-23T17:03:57.289Z,14.80
2023-04-23T17:06:27.620Z,18.30
2023-04-23T17:09:00.133Z,17.90
2023-04-23T17:11:30.161Z,22.20
2023-04-23T17:13:58.763Z,18.40
2023-04-23T17:16:27.537Z,16.00
2023-04-23T17:18:56.934Z,15.00
2023-04-23T17:21:26.074Z,18.20
2023-04-23T17:23:54.440Z,23.10
2023-04-23T17:26:22.693Z,20.10
2023-04-23T17:28:51.795Z,25.50
2023-04-23T17:31:20.274Z,22.30
2023-04-23T17:33:50.466Z,18.70
2023-04-23T17:36:18.780Z,13.50
2023-04-23T17:38:47.097Z,12.90
2023-04-23T17:41:17.708Z,12.20
2023-04-23T17:43:46.381Z,12.10
2023-04-23T17:46:15.036Z,15.50
2023-04-23T17:48:43.247Z,15.40
2023-04-23T17:51:11.769Z,13.70
2023-04-23T17:53:43.504Z,9.00
2023-04-23T17:56:12.273Z,11.50
2023-04-23T17:58:40.756Z,9.00
2023-04-23T18:01:09.985Z,10.90
2023-04-23T18:03:38.517Z,14.60
2023-04-23T18:06:08.877Z,13.70
2023-04-23T18:08:39.028Z,10.70
2023-04-23T18:11:09.229Z,11.70
2023-04-23T18:13:37.596Z,9.60
2023-04-23T18:16:06.690Z,10.90
2023-04-23T18:18:35.009Z,10.60
2023-04-23T18:21:04.681Z,12.80
2023-04-23T18:23:35.953Z,18.80
2023-04-23T18:26:06.714Z,16.00
2023-04-23T18:28:37.203Z,11.90
2023-04-23T18:31:05.624Z,14.30
2023-04-23T18:33:47.977Z,18.40
2023-04-23T18:36:16.273Z,60.30
2023-04-23T18:38:47.955Z,13.30
2023-04-23T18:41:16.260Z,9.90
2023-04-23T18:43:44.919Z,13.20
2023-04-23T18:46:13.654Z,17.10
2023-04-23T18:48:53.330Z,14.90
2023-04-23T18:51:45.870Z,13.70
2023-04-23T18:54:15.191Z,11.80
2023-04-23T18:56:49.747Z,11.30
2023-04-23T18:59:19.723Z,11.10
2023-04-23T19:01:48.582Z,11.40
2023-04-23T19:04:17.150Z,9.60
2023-04-23T19:06:45.790Z,9.70
2023-04-23T19:09:13.924Z,9.20
2023-04-23T19:11:42.048Z,8.90
2023-04-23T19:14:10.511Z,11.00
2023-04-23T19:16:39.045Z,8.90
2023-04-23T19:19:07.605Z,11.30
2023-04-23T19:21:36.197Z,11.40
2023-04-23T19:24:04.552Z,13.90
2023-04-23T19:26:32.700Z,15.70
2023-04-23T19:29:01.135Z,12.50
2023-04-23T19:31:30.932Z,9.80
2023-04-23T19:33:59.374Z,14.20
2023-04-23T19:36:27.782Z,11.80
2023-04-23T19:38:56.495Z,10.20
2023-04-23T19:41:26.199Z,9.90
2023-04-23T19:43:54.360Z,11.00
2023-04-23T19:46:22.848Z,8.30
2023-04-23T19:48:51.531Z,9.60
2023-04-23T19:51:23.144Z,10.10
2023-04-23T19:53:51.588Z,10.40
2023-04-23T19:56:22.951Z,15.00
2023-04-23T19:58:51.296Z,13.40
2023-04-23T20:01:19.547Z,11.20
2023-04-23T20:03:52.149Z,11.00
2023-04-23T20:06:21.295Z,8.00
2023-04-23T20:09:07.883Z,8.50
2023-04-23T20:11:36.573Z,7.00
2023-04-23T20:14:05.029Z,8.40
2023-04-23T20:16:34.695Z,11.10
2023-04-23T20:19:03.659Z,8.40
2023-04-23T20:21:32.114Z,9.30
2023-04-23T20:24:00.528Z,10.50
2023-04-23T20:26:28.775Z,10.60
2023-04-23T20:28:56.912Z,6.80
2023-04-23T20:31:25.166Z,8.20
2023-04-23T20:33:53.918Z,12.30
2023-04-23T20:36:23.426Z,9.80
2023-04-23T20:38:54.475Z,14.50
2023-04-23T20:41:23.167Z,11.80
2023-04-23T20:43:52.061Z,9.90
2023-04-23T20:46:20.481Z,13.50
2023-04-23T20:48:54.081Z,10.60
2023-04-23T20:53:52.124Z,6.90
2023-04-23T20:56:20.539Z,12.30
2023-04-23T20:58:48.795Z,7.30
2023-04-23T21:01:17.488Z,12.90
2023-04-23T21:03:46.005Z,11.30
2023-04-23T21:06:14.461Z,11.10
2023-04-23T21:08:43.055Z,9.60
2023-04-23T21:11:14.992Z,8.70
2023-04-23T21:13:43.672Z,10.20
2023-04-23T21:16:12.556Z,11.40
2023-04-23T21:18:42.088Z,10.20
2023-04-23T21:21:10.731Z,13.50
2023-04-23T21:23:38.942Z,15.40
2023-04-23T21:26:08.034Z,8.70
2023-04-23T21:28:37.263Z,10.60
2023-04-23T21:31:14.337Z,11.60
2023-04-23T21:33:43.029Z,10.60
2023-04-23T21:36:11.418Z,11.00
2023-04-23T21:38:39.476Z,10.70
2023-04-23T21:41:07.944Z,9.20
2023-04-23T21:43:36.044Z,10.50
2023-04-23T21:46:04.400Z,10.50
2023-04-23T21:48:33.624Z,13.90
2023-04-23T21:51:02.493Z,9.70
2023-04-23T21:53:31.075Z,11.30
2023-04-23T21:55:59.676Z,11.70
2023-04-23T21:58:28.248Z,8.70
2023-04-23T22:00:56.766Z,10.40
2023-04-23T22:03:37.259Z,10.10
2023-04-23T22:06:07.252Z,12.00
2023-04-23T22:08:38.281Z,13.50
2023-04-23T22:11:08.233Z,15.30
2023-04-23T22:13:36.656Z,16.90
2023-04-23T22:16:13.359Z,13.40
2023-04-23T22:18:45.231Z,11.00
2023-04-23T22:21:13.472Z,11.20
2023-04-23T22:23:41.863Z,8.90
2023-04-23T22:26:10.354Z,9.00
2023-04-23T22:28:38.612Z,8.90
2023-04-23T22:31:07.034Z,9.00
2023-04-23T22:33:36.710Z,9.70
2023-04-23T22:36:05.625Z,10.20
2023-04-23T22:38:34.732Z,8.70
2023-04-23T22:41:03.194Z,10.10
2023-04-23T22:43:31.762Z,12.20
2023-04-23T22:46:00.136Z,9.60
2023-04-23T22:48:28.845Z,7.50
2023-04-23T22:50:57.752Z,8.90
2023-04-23T22:53:25.904Z,11.40
2023-04-23T22:55:54.695Z,8.80
2023-04-23T22:58:22.788Z,7.50
2023-04-23T23:00:51.157Z,8.60
2023-04-23T23:03:19.580Z,7.60
2023-04-23T23:05:47.908Z,7.20
2023-04-23T23:08:16.231Z,7.30
2023-04-23T23:10:44.668Z,8.90
2023-04-23T23:13:12.854Z,8.10
2023-04-23T23:15:41.151Z,7.30
2023-04-23T23:18:09.338Z,6.70
2023-04-23T23:20:37.712Z,7.70
2023-04-23T23:23:06.170Z,8.20
2023-04-23T23:25:38.523Z,8.70
2023-04-23T23:28:07.067Z,9.00
2023-04-23T23:30:35.604Z,7.40
2023-04-23T23:33:04.174Z,8.90
2023-04-23T23:35:32.472Z,6.50
2023-04-23T23:38:00.753Z,7.40
2023-04-23T23:40:29.127Z,8.70
2023-04-23T23:42:57.512Z,9.30
2023-04-23T23:45:25.955Z,7.40
2023-04-23T23:47:54.808Z,7.60
2023-04-23T23:50:23.265Z,7.90
2023-04-23T23:52:52.480Z,8.30
2023-04-23T23:55:20.748Z,7.90
2023-04-23T23:57:49.024Z,7.80
